Latest Weather Observations for Bendigo

IDV60801

Issued at 4:05 pm EDT Monday 24 November 2014 (issued every 30 minutes, with the page automatically refreshed every 10 minutes)

About weather observations | Map of weather stations | Latest weather observations for VIC | Other Formats
Station Details ID: 081123 Name: BENDIGO AIRPORT Lat: -36.74 Lon: 144.33 Height: 208.0 m
Data from the previous 72 hours. | See also: Recent months at Bendigo
Date/Time
EDT
Temp
°C
App
Temp
°C
Dew
Point
Rel
Hum
%
Delta-T
°C
Wind Press
QNH
hPa
Press
MSL
hPa
Rain
since 9 am
mm
Dir
 
Spd
km/h
Gust
km/h
Spd
kts
Gust
kts
24/04:00pm 21.0 22.2 19.1 89 1.2 W 11 17 6 9 1005.8 1005.4 9.6
24/03:30pm 20.7 22.1 19.5 93 0.8 N 11 13 6 7 1006.3 1005.9 9.4
24/03:00pm 20.8 23.0 19.5 92 0.8 WNW 7 11 4 6 1006.9 1006.4 9.2
24/02:57pm 20.6 22.7 18.9 90 1.1 W 6 9 3 5 1006.9 1006.4 9.2
24/02:38pm 20.4 20.9 18.3 88 1.3 WNW 13 20 7 11 1006.9 1006.4 9.0
24/02:30pm 20.5 21.5 17.7 84 1.7 W 9 17 5 9 1006.5 1006.1 8.0
24/02:00pm 20.7 22.3 18.3 86 1.5 W 7 15 4 8 1006.2 1005.8 8.0
24/01:32pm 18.5 19.3 17.2 92 0.8 N 9 17 5 9 1008.0 1007.5 8.0
24/01:30pm 18.5 19.3 17.3 93 0.7 NNW 9 19 5 10 1008.0 1007.5 8.0
24/01:10pm 19.2 15.8 15.7 80 2.1 WNW 28 67 15 36 1009.7 1009.3 5.4
24/01:05pm 22.1 21.6 17.7 76 2.7 WNW 17 32 9 17 1008.6 1008.2 2.2
24/01:00pm 23.0 22.8 17.7 72 3.3 WNW 15 20 8 11 1008.3 1007.9 1.4
24/12:57pm 22.9 22.8 17.8 73 3.2 NW 15 28 8 15 1008.2 1007.8 1.0
24/12:43pm 22.9 20.5 17.4 71 3.4 NW 26 39 14 21 1008.4 1008.0 0.8
24/12:30pm 26.0 23.4 16.8 57 5.7 NW 26 35 14 19 1008.5 1008.1 0.0
24/12:00pm 24.9 21.6 16.1 58 5.4 N 28 39 15 21 1008.4 1008.0 0.0
24/11:42am 25.3 21.9 15.9 56 5.8 N 28 54 15 29 1008.6 1008.2 0.0
24/11:30am 25.3 22.6 15.6 55 5.9 N 24 37 13 20 1009.0 1008.6 0.0
24/11:00am 24.5 21.7 15.4 57 5.5 N 24 35 13 19 1008.9 1008.5 0.0
24/10:30am 23.0 22.2 12.9 53 5.9 N 9 13 5 7 1009.5 1009.1 0.0
24/10:00am 22.3 23.3 14.2 60 4.8 NW 2 6 1 3 1010.0 1009.6 0.0
24/09:30am 21.3 22.7 14.5 65 4.0 CALM 0 0 0 0 1010.2 1009.8 0.0
24/09:00am 20.9 21.9 13.1 61 4.5 CALM 0 4 0 2 1010.1 1009.7 0.6
24/08:30am 21.0 20.3 13.2 61 4.5 N 9 13 5 7 1009.7 1009.3 0.6
24/08:00am 19.7 19.6 13.4 67 3.6 N 6 9 3 5 1009.5 1009.1 0.6
24/07:30am 17.4 18.0 14.3 82 1.8 NE 4 9 2 5 1009.4 1009.0 0.6
24/07:00am 16.7 16.3 14.2 85 1.4 SE 9 11 5 6 1009.6 1009.2 0.6
24/06:30am 16.5 15.6 13.8 84 1.5 E 11 15 6 8 1009.2 1008.8 0.6
24/06:00am 16.9 16.8 13.4 80 2.0 S 6 15 3 8 1009.4 1009.0 0.2
24/05:30am 16.4 15.8 12.4 77 2.2 SE 7 13 4 7 1008.8 1008.4 0.0
24/05:00am 16.5 15.9 12.3 76 2.3 SE 7 11 4 6 1008.7 1008.3 0.0
24/04:30am 16.5 16.1 12.3 76 2.3 ESE 6 13 3 7 1008.9 1008.5 0.0
24/04:00am 16.3 15.8 12.1 76 2.3 SE 6 9 3 5 1009.2 1008.8 0.0
24/03:30am 16.6 15.6 12.2 75 2.4 SE 9 13 5 7 1009.4 1009.0 0.0
24/03:00am 17.1 16.1 12.2 73 2.7 SE 9 13 5 7 1009.7 1009.3 0.0
24/02:30am 17.1 16.1 12.4 74 2.6 SSE 9 13 5 7 1010.2 1009.8 0.0
24/02:00am 17.3 16.9 12.4 73 2.7 SE 6 11 3 6 1010.5 1010.1 0.0
24/01:30am 18.0 16.3 12.5 70 3.1 SSE 13 19 7 10 1010.7 1010.3 0.0
24/01:00am 18.7 17.1 12.7 68 3.4 SE 13 15 7 8 1011.1 1010.7 0.0
24/12:30am 18.7 17.4 12.5 67 3.5 SE 11 15 6 8 1011.5 1011.1 0.0
24/12:00am 19.8 18.5 12.6 63 4.1 ESE 11 15 6 8 1011.9 1011.4 0.0
 
Date/Time
EDT
Temp
°C
App
Temp
°C
Dew
Point
Rel
Hum
%
Delta-T
°C
Wind Press
QNH
hPa
Press
MSL
hPa
Rain
since 9 am
mm
Dir
 
Spd
km/h
Gust
km/h
Spd
kts
Gust
kts
23/11:30pm 20.4 19.9 12.1 59 4.7 S 6 11 3 6 1012.2 1011.7 0.0
23/11:00pm 21.4 18.4 12.0 55 5.3 S 19 20 10 11 1012.4 1012.0 0.0
23/10:30pm 22.8 19.8 9.2 42 7.4 S 15 19 8 10 1013.0 1012.6 0.0
23/10:00pm 23.5 21.6 4.9 30 9.4 NNE 4 13 2 7 1012.7 1012.3 0.0
23/09:30pm 24.3 22.2 5.6 30 9.6 N 6 7 3 4 1013.1 1012.7 0.0
23/09:00pm 23.1 22.5 7.6 37 8.2 CALM 0 0 0 0 1012.6 1012.2 0.0
23/08:30pm 24.8 23.4 5.6 29 9.9 NNE 2 7 1 4 1011.7 1011.3 0.0
23/08:00pm 26.0 23.7 2.7 22 11.5 SSW 4 9 2 5 1011.2 1010.8 0.0
23/07:30pm 27.2 23.5 2.3 20 12.3 WSW 11 17 6 9 1011.0 1010.6 0.0
23/07:00pm 27.8 23.2 3.5 21 12.3 W 17 30 9 16 1011.0 1010.6 0.0
23/06:30pm 28.3 23.7 3.9 21 12.4 WSW 17 24 9 13 1011.0 1010.6 0.0
23/06:00pm 28.6 23.6 3.5 20 12.8 W 19 28 10 15 1010.9 1010.5 0.0
23/05:30pm 29.0 23.8 3.8 20 12.9 W 20 33 11 18 1010.7 1010.3 0.0
23/05:00pm 28.9 22.7 4.4 21 12.7 W 26 39 14 21 1010.4 1010.0 0.0
23/04:30pm 29.5 23.7 6.2 23 12.4 W 26 41 14 22 1010.5 1010.1 0.0
23/04:00pm 30.5 25.1 9.4 27 12.0 WNW 28 39 15 21 1010.2 1009.8 0.0
23/03:30pm 30.7 24.1 7.8 24 12.6 WNW 32 44 17 24 1010.1 1009.7 0.0
23/03:00pm 32.2 26.0 7.8 22 13.6 NNW 30 50 16 27 1009.7 1009.3 0.0
23/02:30pm 31.3 26.4 8.3 24 12.8 NNW 24 35 13 19 1009.8 1009.4 0.0
23/02:00pm 30.3 26.5 9.8 28 11.7 NW 20 32 11 17 1010.2 1009.8 0.0
23/01:30pm 30.3 28.0 11.8 32 10.9 WNW 15 20 8 11 1010.4 1010.0 0.0
23/01:00pm 29.2 26.2 10.8 32 10.6 WNW 17 26 9 14 1010.4 1010.0 0.0
23/12:30pm 28.6 26.9 12.5 37 9.5 NNW 13 26 7 14 1010.5 1010.1 0.0
23/12:00pm 27.5 26.5 13.4 41 8.4 NNW 11 22 6 12 1010.9 1010.5 0.0
23/11:30am 26.7 25.7 14.5 47 7.4 NW 13 26 7 14 1011.2 1010.8 0.0
23/11:00am 25.0 25.7 14.5 52 6.3 NW 4 11 2 6 1011.3 1010.9 0.0
23/10:30am 24.3 24.9 15.2 57 5.5 NNW 6 15 3 8 1011.4 1011.0 0.0
23/10:00am 23.3 25.0 16.1 64 4.4 N 2 7 1 4 1011.7 1011.3 0.0
23/09:30am 22.1 23.9 16.4 70 3.5 SSE 2 9 1 5 1012.1 1011.6 0.0
23/09:00am 21.1 22.1 16.3 74 2.9 SE 6 9 3 5 1012.1 1011.6 1.6
23/08:30am 20.3 21.3 16.3 78 2.4 SE 6 11 3 6 1012.0 1011.5 1.6
23/08:00am 19.2 19.9 17.0 87 1.3 SE 9 15 5 8 1011.6 1011.2 1.6
23/07:30am 18.6 19.4 17.3 92 0.8 SE 9 13 5 7 1011.5 1011.1 1.6
23/07:00am 17.5 18.7 17.3 99 0.1 SSE 7 11 4 6 1011.2 1010.8 1.6
23/06:30am 17.1 17.7 16.9 99 0.1 SSE 9 13 5 7 1010.8 1010.4 1.6
23/06:00am 16.8 17.3 16.6 99 0.1 SSE 9 13 5 7 1010.4 1010.0 1.6
23/05:30am 16.7 17.8 16.5 99 0.1 SSE 6 9 3 5 1010.5 1010.1 1.6
23/05:00am 16.5 16.9 16.3 99 0.1 S 9 11 5 6 1010.4 1010.0 1.6
23/04:30am 16.8 19.0 16.6 99 0.1 CALM 0 0 0 0 1010.2 1009.8 1.6
23/04:00am 16.6 18.8 16.4 99 0.1 CALM 0 0 0 0 1010.3 1009.9 1.6
23/03:30am 17.0 19.3 16.8 99 0.1 CALM 0 0 0 0 1010.2 1009.8 1.6
23/03:20am 17.1 19.5 16.9 99 0.1 CALM 0 0 0 0 1010.3 1009.9 1.6
23/03:03am 17.0 18.2 16.8 99 0.1 N 6 9 3 5 1010.2 1009.8 1.6
23/03:00am 17.0 18.6 16.8 99 0.1 N 4 9 2 5 1010.3 1009.9 1.6
23/02:30am 16.9 19.2 16.7 99 0.1 CALM 0 0 0 0 1010.0 1009.6 1.6
23/02:00am 16.9 19.1 16.6 98 0.2 CALM 0 0 0 0 1009.6 1009.2 1.6
23/01:30am 17.6 18.4 17.3 98 0.2 N 9 13 5 7 1009.5 1009.1 1.6
23/01:00am 17.7 20.3 17.5 99 0.1 CALM 0 6 0 3 1009.7 1009.3 1.6
23/12:30am 17.7 20.3 17.4 98 0.2 CALM 0 0 0 0 1009.2 1008.8 1.6
23/12:00am 18.1 20.7 17.6 97 0.3 CALM 0 0 0 0 1009.4 1009.0 1.4
 
Date/Time
EDT
Temp
°C
App
Temp
°C
Dew
Point
Rel
Hum
%
Delta-T
°C
Wind Press
QNH
hPa
Press
MSL
hPa
Rain
since 9 am
mm
Dir
 
Spd
km/h
Gust
km/h
Spd
kts
Gust
kts
22/11:30pm 18.1 20.4 17.6 97 0.3 ENE 2 7 1 4 1009.4 1009.0 1.4
22/11:13pm 18.1 20.3 17.5 96 0.4 ESE 2 9 1 5 1009.6 1009.2 1.4
22/11:00pm 18.0 19.4 17.4 96 0.4 SSW 6 13 3 7 1009.4 1009.0 1.4
22/10:56pm 18.2 20.5 17.6 96 0.4 W 2 9 1 5 1009.3 1008.9 1.4
22/10:30pm 18.5 20.6 17.3 93 0.7 E 2 6 1 3 1009.4 1009.0 0.6
22/10:00pm 18.9 20.4 16.7 87 1.3 WNW 4 7 2 4 1010.2 1009.8 0.4
22/09:30pm 19.8 20.1 15.9 78 2.3 NNW 9 15 5 8 1009.9 1009.5 0.0
22/09:00pm 20.3 19.6 15.3 73 3.0 NW 13 19 7 10 1009.5 1009.1 0.0
22/08:30pm 20.6 19.1 15.2 71 3.2 NW 17 30 9 16 1008.7 1008.3 0.0
22/08:00pm 21.5 19.1 14.4 64 4.2 NW 20 30 11 16 1008.7 1008.3 0.0
22/07:30pm 22.8 19.7 13.3 55 5.5 NW 22 35 12 19 1009.0 1008.6 0.0
22/07:21pm 23.2 19.0 13.4 54 5.7 NW 28 46 15 25 1009.2 1008.8 0.0
22/07:00pm 24.3 20.1 12.3 47 6.9 NNW 26 44 14 24 1008.2 1007.8 0.0
22/06:30pm 26.2 19.8 9.5 35 9.3 NNW 33 54 18 29 1008.5 1008.1 0.0
22/06:06pm 27.5 21.1 8.4 30 10.5 NNW 32 54 17 29 1008.2 1007.8 0.0
22/06:00pm 27.8 21.7 8.1 29 10.8 NNW 30 46 16 25 1007.9 1007.4 0.0
22/05:58pm 27.8 21.9 7.6 28 10.9 NNW 28 46 15 25 1007.9 1007.4 0.0
22/05:30pm 28.4 22.3 6.5 25 11.7 NNW 28 43 15 23 1008.1 1007.6 0.0
22/05:20pm 28.6 22.1 6.7 25 11.7 NNW 30 48 16 26 1008.1 1007.6 0.0
22/05:00pm 29.1 22.8 5.9 23 12.3 NNW 28 43 15 23 1007.8 1007.3 0.0
22/04:40pm 29.2 22.8 5.3 22 12.6 N 28 46 15 25 1007.6 1007.1 0.0
22/04:30pm 29.6 24.0 5.6 22 12.7 N 24 33 13 18 1007.9 1007.4 0.0
22/04:00pm 28.4 22.5 5.9 24 11.9 N 26 35 14 19 1008.4 1008.0 0.0
22/03:30pm 28.2 22.0 6.3 25 11.6 N 28 41 15 22 1009.0 1008.6 0.0
22/03:00pm 27.8 21.7 6.6 26 11.3 N 28 43 15 23 1009.4 1009.0 0.0
22/02:30pm 27.7 22.5 5.3 24 11.7 N 22 35 12 19 1009.9 1009.5 0.0
22/02:00pm 26.7 21.6 6.2 27 10.8 N 22 33 12 18 1010.3 1009.9 0.0
22/01:30pm 27.0 21.6 6.4 27 10.9 NNE 24 32 13 17 1010.2 1009.8 0.0
22/01:00pm 24.0 20.2 7.6 35 8.7 NNE 17 20 9 11 1011.0 1010.6 0.0
22/12:30pm 23.7 22.6 6.9 34 8.8 NE 2 7 1 4 1012.1 1011.6 0.0
22/12:00pm 23.7 22.8 7.8 36 8.5 N 2 9 1 5 1012.6 1012.2 0.0
22/11:30am 23.5 21.2 7.6 36 8.4 NNW 9 13 5 7 1012.7 1012.3 0.0
22/11:00am 23.7 21.4 7.3 35 8.6 NE 9 15 5 8 1012.2 1011.7 0.0
22/10:30am 23.1 20.2 6.4 34 8.6 NE 11 17 6 9 1011.9 1011.4 0.0
22/10:00am 22.3 20.6 7.7 39 7.7 NE 6 11 3 6 1011.9 1011.4 0.0
22/09:30am 21.6 20.0 8.8 44 6.8 ENE 7 15 4 8 1011.5 1011.1 0.0
22/09:00am 20.4 19.6 9.6 50 5.8 SSE 4 9 2 5 1011.6 1011.2 0.0
22/08:30am 19.7 18.3 9.6 52 5.4 ESE 7 9 4 5 1011.2 1010.8 0.0
22/08:00am 17.5 16.1 9.4 59 4.3 SSE 7 9 4 5 1011.2 1010.8 0.0
22/07:30am 15.1 13.5 8.6 65 3.3 SE 7 9 4 5 1011.2 1010.8 0.0
22/07:00am 13.4 11.9 9.1 75 2.2 SSE 7 13 4 7 1011.0 1010.6 0.0
22/06:30am 11.0 9.0 7.1 77 1.9 SSE 7 11 4 6 1011.1 1010.7 0.0
22/06:00am 8.8 7.9 5.9 82 1.3 CALM 0 0 0 0 1010.7 1010.3 0.0
22/05:30am 9.8 9.0 6.3 79 1.6 CALM 0 0 0 0 1010.5 1010.1 0.0
22/05:00am 10.3 8.8 6.6 78 1.8 S 4 6 2 3 1010.4 1010.0 0.0
22/04:30am 10.0 8.8 6.5 79 1.7 S 2 6 1 3 1010.2 1009.8 0.0
22/04:00am 9.8 9.0 6.3 79 1.6 CALM 0 0 0 0 1010.1 1009.7 0.0
22/03:30am 10.8 10.0 6.4 74 2.1 CALM 0 0 0 0 1010.2 1009.8 0.0
22/03:00am 10.2 8.2 6.2 76 1.9 S 6 9 3 5 1010.2 1009.8 0.0
22/02:30am 10.8 9.9 6.2 73 2.2 CALM 0 0 0 0 1010.6 1010.2 0.0
22/02:00am 12.5 11.7 6.3 66 3.0 CALM 0 0 0 0 1010.8 1010.4 0.0
22/01:30am 14.4 12.5 6.7 60 3.8 S 6 6 3 3 1011.2 1010.8 0.0
22/01:14am 14.8 12.9 6.6 58 4.0 SSE 6 7 3 4 1011.3 1010.9 0.0
22/01:00am 15.0 12.9 6.6 57 4.1 SSE 7 11 4 6 1011.4 1011.0 0.0
22/12:55am 14.9 12.9 7.0 59 3.9 SSE 7 9 4 5 1011.5 1011.1 0.0
22/12:30am 15.2 13.2 6.2 55 4.4 SSE 6 7 3 4 1011.6 1011.2 0.0
22/12:00am 16.8 15.5 6.0 49 5.3 S 2 7 1 4 1012.0 1011.5 0.0
 
Date/Time
EDT
Temp
°C
App
Temp
°C
Dew
Point
Rel
Hum
%
Delta-T
°C
Wind Press
QNH
hPa
Press
MSL
hPa
Rain
since 9 am
mm
Dir
 
Spd
km/h
Gust
km/h
Spd
kts
Gust
kts
21/11:30pm 16.5 13.8 5.5 48 5.3 SSE 9 11 5 6 1012.0 1011.5 0.0
21/11:00pm 15.6 14.5 5.2 50 5.0 CALM 0 0 0 0 1012.0 1011.5 0.0
21/10:30pm 19.5 18.1 3.6 35 7.6 CALM 0 0 0 0 1012.0 1011.5 0.0
21/10:00pm 21.1 18.3 3.3 31 8.6 W 7 9 4 5 1011.9 1011.4 0.0
21/09:30pm 21.7 18.0 4.3 32 8.6 W 13 19 7 10 1011.5 1011.1 0.0
21/09:00pm 18.6 17.9 6.8 46 6.0 CALM 0 0 0 0 1011.0 1010.6 0.0
21/08:30pm 19.7 19.0 6.8 43 6.6 CALM 0 0 0 0 1010.7 1010.3 0.0
21/08:00pm 24.0 23.0 5.4 30 9.5 CALM 0 0 0 0 1010.3 1009.9 0.0
21/07:30pm 25.6 23.8 5.2 27 10.5 W 4 11 2 6 1010.0 1009.6 0.0
21/07:00pm 25.4 23.9 5.1 27 10.4 NNW 2 6 1 3 1009.8 1009.4 0.0
21/06:30pm 26.1 23.3 5.1 26 10.8 W 9 15 5 8 1009.6 1009.2 0.0
21/06:00pm 25.8 23.9 4.9 26 10.7 WNW 4 13 2 7 1009.5 1009.1 0.0
21/05:30pm 25.7 21.3 4.8 26 10.7 WNW 17 24 9 13 1009.5 1009.1 0.0
21/05:00pm 25.3 21.9 3.9 25 10.7 WSW 11 20 6 11 1009.5 1009.1 0.0
21/04:30pm 25.7 23.7 4.2 25 10.8 NW 4 17 2 9 1009.7 1009.3 0.0

Other Formats:

Comma delimited format used in spreadsheet applications
http://www.bom.gov.au/fwo/IDV60801/IDV60801.94855.axf

JavaScript Object Notation format (JSON) in row-major order
http://www.bom.gov.au/fwo/IDV60801/IDV60801.94855.json